Time;durP1;ratioP1;P1;durP2;ratioP2;P2;SDS_P1;SDS_P2;PMS_P1;PMS_P2;Temp;Humidity;BMP_temperature;BMP_pressure;BME280_temperature;BME280_humidity;BME280_pressure;Samples;Min_cycle;Max_cycle;Signal;HPM_P1;HPM_P2
2021/12/09 00:01:02;;;;;;;0.00;0.00;;;1.80;99.90;;;;;;5033052;28;20392;-68
2021/12/09 00:03:30;;;;;;;0.00;0.00;;;1.80;99.90;;;;;;5033176;28;20036;-69
2021/12/09 00:05:57;;;;;;;0.00;0.00;;;1.80;99.90;;;;;;5033702;28;20476;-68
2021/12/09 00:08:25;;;;;;;0.00;0.00;;;1.80;99.90;;;;;;5037169;28;20376;-69
2021/12/09 00:10:53;;;;;;;0.00;0.00;;;1.80;99.90;;;;;;5034923;28;20028;-69
2021/12/09 00:13:18;;;;;;;0.00;0.00;;;1.80;99.90;;;;;;5033001;28;20037;-69
2021/12/09 00:15:44;;;;;;;0.00;0.00;;;1.80;99.90;;;;;;5032817;28;20522;-69
2021/12/09 00:18:09;;;;;;;0.00;0.00;;;1.80;99.90;;;;;;5032811;28;21896;-69
2021/12/09 00:20:35;;;;;;;0.00;0.00;;;1.80;99.90;;;;;;5032494;28;20033;-69
2021/12/09 00:23:01;;;;;;;0.00;0.00;;;1.70;99.90;;;;;;5033012;28;20064;-69
2021/12/09 00:25:27;;;;;;;0.00;0.00;;;1.70;99.90;;;;;;5033334;28;20033;-69
2021/12/09 00:27:52;;;;;;;0.00;0.00;;;1.70;99.90;;;;;;5032015;28;20033;-69
2021/12/09 00:30:19;;;;;;;0.00;0.00;;;1.60;99.90;;;;;;5031465;28;20041;-69
2021/12/09 00:32:45;;;;;;;0.00;0.00;;;1.60;99.90;;;;;;5032736;28;20029;-69
2021/12/09 00:35:14;;;;;;;0.00;0.00;;;1.60;99.90;;;;;;5032993;28;20040;-69
2021/12/09 00:37:54;;;;;;;0.00;0.00;;;1.60;99.90;;;;;;5032622;28;20049;-69
2021/12/09 00:40:19;;;;;;;0.00;0.00;;;1.60;99.90;;;;;;5032085;28;20041;-69
2021/12/09 00:42:45;;;;;;;0.00;0.00;;;1.60;99.90;;;;;;5032100;28;20032;-69
2021/12/09 00:45:11;;;;;;;0.00;0.00;;;1.60;99.90;;;;;;5030929;28;20068;-68
2021/12/09 00:47:36;;;;;;;0.00;0.00;;;1.60;99.90;;;;;;5032560;28;20032;-68
2021/12/09 00:50:03;;;;;;;0.00;0.00;;;1.60;99.90;;;;;;5031857;28;20041;-69
2021/12/09 00:52:28;;;;;;;0.00;0.00;;;1.60;99.90;;;;;;5032371;28;20112;-69
2021/12/09 00:54:55;;;;;;;0.00;0.00;;;1.60;99.90;;;;;;5032532;28;20129;-68
2021/12/09 00:57:21;;;;;;;0.00;0.00;;;1.60;99.90;;;;;;5018912;28;20037;-69
2021/12/09 00:59:47;;;;;;;0.00;0.00;;;1.50;99.90;;;;;;5032034;28;20431;-69
2021/12/09 01:02:12;;;;;;;0.00;0.00;;;1.60;99.90;;;;;;5031672;28;20036;-69
2021/12/09 01:04:39;;;;;;;0.00;0.00;;;1.60;99.90;;;;;;5032611;28;20033;-69
2021/12/09 01:07:05;;;;;;;0.00;0.00;;;1.60;99.90;;;;;;5032328;28;20076;-69
2021/12/09 01:09:32;;;;;;;0.00;0.00;;;1.60;99.90;;;;;;5032363;28;20029;-68
2021/12/09 01:11:57;;;;;;;0.00;0.00;;;1.60;99.90;;;;;;5031480;28;20049;-68
2021/12/09 01:14:23;;;;;;;0.00;0.00;;;1.60;99.90;;;;;;5032118;28;20440;-68
2021/12/09 01:16:49;;;;;;;0.00;0.00;;;1.50;99.90;;;;;;5032254;28;20069;-68
2021/12/09 01:19:15;;;;;;;0.00;0.00;;;1.50;99.90;;;;;;5031635;28;20060;-69
2021/12/09 01:21:41;;;;;;;0.00;0.00;;;1.50;99.90;;;;;;5031532;28;20025;-68
2021/12/09 01:24:07;;;;;;;0.00;0.00;;;1.50;99.90;;;;;;5031841;28;20029;-69
2021/12/09 01:26:33;;;;;;;0.00;0.00;;;1.50;99.90;;;;;;5018812;28;20033;-69
2021/12/09 01:29:04;;;;;;;0.00;0.00;;;1.50;99.90;;;;;;5031737;28;20037;-69
2021/12/09 01:31:34;;;;;;;0.00;0.00;;;1.50;99.90;;;;;;5031612;28;20029;-69
2021/12/09 01:34:02;;;;;;;0.00;0.00;;;1.50;99.90;;;;;;5031715;28;20071;-69
2021/12/09 01:36:30;;;;;;;0.00;0.00;;;1.50;99.90;;;;;;5032084;28;20110;-68
2021/12/09 01:38:55;;;;;;;0.00;0.00;;;1.50;99.90;;;;;;5031337;28;20056;-69
2021/12/09 01:41:21;;;;;;;0.00;0.00;;;1.50;99.90;;;;;;5036743;28;20453;-68
2021/12/09 01:43:47;;;;;;;0.00;0.00;;;1.50;99.90;;;;;;5038305;28;20423;-69
2021/12/09 01:46:16;;;;;;;0.00;0.00;;;1.50;99.90;;;;;;5042762;28;20026;-69
2021/12/09 01:48:45;;;;;;;0.00;0.00;;;1.50;99.90;;;;;;5038368;28;20028;-69
2021/12/09 01:51:11;;;;;;;0.00;0.00;;;1.50;99.90;;;;;;5037851;28;20029;-69
2021/12/09 01:53:37;;;;;;;0.00;0.00;;;1.50;99.90;;;;;;5038118;28;20030;-69
2021/12/09 01:56:10;;;;;;;0.00;0.00;;;1.50;99.90;;;;;;5038628;28;20036;-69
2021/12/09 01:58:36;;;;;;;0.00;0.00;;;1.50;99.90;;;;;;5038357;28;20043;-69
2021/12/09 02:01:03;;;;;;;0.00;0.00;;;1.50;99.90;;;;;;5037929;28;20034;-68
2021/12/09 02:03:29;;;;;;;0.00;0.00;;;1.50;99.90;;;;;;5038061;28;20067;-69
2021/12/09 02:05:55;;;;;;;0.00;0.00;;;1.50;99.90;;;;;;5038563;28;20053;-69
2021/12/09 02:08:21;;;;;;;0.00;0.00;;;1.50;99.90;;;;;;5037857;28;20057;-69
2021/12/09 02:10:48;;;;;;;0.00;0.00;;;1.50;99.90;;;;;;5037570;28;20040;-69
2021/12/09 02:13:15;;;;;;;0.00;0.00;;;1.50;99.90;;;;;;5038114;28;20037;-68
2021/12/09 02:15:41;;;;;;;0.00;0.00;;;1.50;99.90;;;;;;5038461;28;20116;-69
2021/12/09 02:18:08;;;;;;;0.00;0.00;;;1.40;99.90;;;;;;5037970;28;20113;-69
2021/12/09 02:20:37;;;;;;;0.00;0.00;;;1.50;99.90;;;;;;5037358;28;20108;-69
2021/12/09 02:23:08;;;;;;;0.00;0.00;;;1.40;99.90;;;;;;5038035;28;20155;-69
2021/12/09 02:25:35;;;;;;;0.00;0.00;;;1.40;99.90;;;;;;5038130;28;20129;-69
2021/12/09 02:28:02;;;;;;;0.00;0.00;;;1.40;99.90;;;;;;5037591;28;20041;-69
2021/12/09 02:30:28;;;;;;;0.00;0.00;;;1.30;99.90;;;;;;5037665;28;20037;-68
2021/12/09 02:32:53;;;;;;;0.00;0.00;;;1.30;99.90;;;;;;5037769;28;20030;-69
2021/12/09 02:35:19;;;;;;;0.00;0.00;;;1.30;99.90;;;;;;5038027;28;20033;-69
2021/12/09 02:37:45;;;;;;;0.00;0.00;;;1.20;99.90;;;;;;5037070;28;20037;-69
2021/12/09 02:40:12;;;;;;;0.00;0.00;;;1.20;99.90;;;;;;5037777;28;20040;-68
2021/12/09 02:42:38;;;;;;;0.00;0.00;;;1.20;99.90;;;;;;5037730;28;20392;-68
2021/12/09 02:45:06;;;;;;;0.00;0.00;;;1.20;99.90;;;;;;5038103;28;20026;-68
2021/12/09 02:47:33;;;;;;;0.00;0.00;;;1.20;99.90;;;;;;5037470;28;20163;-68
2021/12/09 02:49:59;;;;;;;0.00;0.00;;;1.20;99.90;;;;;;5037795;28;20100;-68
2021/12/09 02:52:25;;;;;;;0.00;0.00;;;1.20;99.90;;;;;;5039638;28;20033;-68
2021/12/09 02:54:51;;;;;;;0.00;0.00;;;1.20;99.90;;;;;;5043252;28;20121;-68
2021/12/09 02:57:17;;;;;;;0.00;0.00;;;1.20;99.90;;;;;;5036370;28;20128;-68
2021/12/09 02:59:43;;;;;;;0.00;0.00;;;1.10;99.90;;;;;;5034835;28;20125;-68
2021/12/09 03:02:10;;;;;;;0.00;0.00;;;1.10;99.90;;;;;;5034106;28;20095;-68
2021/12/09 03:04:46;;;;;;;0.00;0.00;;;1.10;99.90;;;;;;5034505;28;20561;-68
2021/12/09 03:07:23;;;;;;;0.00;0.00;;;1.10;99.90;;;;;;5034995;28;20033;-68
2021/12/09 03:09:54;;;;;;;0.00;0.00;;;1.10;99.90;;;;;;5034653;28;20064;-68
2021/12/09 03:12:27;;;;;;;0.00;0.00;;;1.10;99.90;;;;;;5034113;28;20033;-68
2021/12/09 03:14:53;;;;;;;0.00;0.00;;;1.10;99.90;;;;;;5034070;28;20055;-68
2021/12/09 03:17:20;;;;;;;0.00;0.00;;;1.10;99.90;;;;;;5034271;28;20073;-68
2021/12/09 03:19:46;;;;;;;0.00;0.00;;;1.00;99.90;;;;;;5033339;28;20044;-68
2021/12/09 03:22:13;;;;;;;0.00;0.00;;;1.00;99.90;;;;;;5038525;28;20116;-68
2021/12/09 03:24:39;;;;;;;0.00;0.00;;;1.10;99.90;;;;;;5034372;28;20533;-68
2021/12/09 03:27:05;;;;;;;0.00;0.00;;;1.10;99.90;;;;;;5034325;28;20124;-68
2021/12/09 03:29:31;;;;;;;0.00;0.00;;;1.10;99.90;;;;;;5034049;28;20025;-68
2021/12/09 03:32:02;;;;;;;0.00;0.00;;;1.10;99.90;;;;;;5039398;28;20483;-68
2021/12/09 03:34:31;;;;;;;0.00;0.00;;;1.10;99.90;;;;;;5034308;28;20056;-68
2021/12/09 03:36:59;;;;;;;0.00;0.00;;;1.10;99.90;;;;;;5038234;28;20476;-69
2021/12/09 03:39:29;;;;;;;0.00;0.00;;;1.10;99.90;;;;;;5038179;28;20039;-68
2021/12/09 03:41:56;;;;;;;0.00;0.00;;;1.10;99.90;;;;;;5031259;28;20037;-68
2021/12/09 03:44:22;;;;;;;0.00;0.00;;;1.10;99.90;;;;;;5032726;28;20049;-68
2021/12/09 03:46:50;;;;;;;0.00;0.00;;;1.10;99.90;;;;;;5043860;28;20507;-68
2021/12/09 03:49:15;;;;;;;0.00;0.00;;;1.10;99.90;;;;;;5021851;28;20034;-68
2021/12/09 03:51:41;;;;;;;0.00;0.00;;;1.10;99.90;;;;;;5032790;28;20025;-69
2021/12/09 03:54:09;;;;;;;0.00;0.00;;;1.10;99.90;;;;;;5033645;28;20075;-68
2021/12/09 03:56:36;;;;;;;0.00;0.00;;;1.00;99.90;;;;;;5033395;28;20044;-68
2021/12/09 03:59:04;;;;;;;0.00;0.00;;;1.10;99.90;;;;;;5025792;28;20044;-68
2021/12/09 04:01:30;;;;;;;0.00;0.00;;;1.10;99.90;;;;;;5032920;28;20631;-68
2021/12/09 04:03:56;;;;;;;0.00;0.00;;;1.10;99.90;;;;;;5023425;28;20036;-68
2021/12/09 04:06:22;;;;;;;0.00;0.00;;;1.10;99.90;;;;;;5033502;28;20497;-68
2021/12/09 04:08:48;;;;;;;0.00;0.00;;;1.10;99.90;;;;;;5031188;28;20025;-68
2021/12/09 04:11:15;;;;;;;0.00;0.00;;;1.00;99.90;;;;;;5032583;28;20467;-68
2021/12/09 04:13:41;;;;;;;0.00;0.00;;;1.10;99.90;;;;;;5032331;28;20471;-68
2021/12/09 04:16:07;;;;;;;0.00;0.00;;;1.10;99.90;;;;;;5033297;28;20045;-68
2021/12/09 04:18:35;;;;;;;0.00;0.00;;;1.10;99.90;;;;;;5026880;28;20053;-68
2021/12/09 04:21:01;;;;;;;0.00;0.00;;;1.10;99.90;;;;;;5032704;28;20036;-69
2021/12/09 04:23:26;;;;;;;0.00;0.00;;;1.10;99.90;;;;;;5032890;28;20035;-68
2021/12/09 04:25:52;;;;;;;0.00;0.00;;;1.10;99.90;;;;;;5033423;28;20033;-68
2021/12/09 04:28:19;;;;;;;0.00;0.00;;;1.10;99.90;;;;;;5032586;28;20388;-69
2021/12/09 04:30:44;;;;;;;0.00;0.00;;;1.10;99.90;;;;;;5032649;28;20033;-68
2021/12/09 04:33:10;;;;;;;0.00;0.00;;;1.10;99.90;;;;;;5032786;28;20432;-68
2021/12/09 04:35:36;;;;;;;0.00;0.00;;;1.20;99.90;;;;;;5033136;28;20531;-68
2021/12/09 04:38:02;;;;;;;0.00;0.00;;;1.20;99.90;;;;;;5032476;28;20037;-68
2021/12/09 04:40:28;;;;;;;0.00;0.00;;;1.20;99.90;;;;;;5032062;28;20025;-68
2021/12/09 04:42:53;;;;;;;0.00;0.00;;;1.10;99.90;;;;;;5033008;28;20469;-68
2021/12/09 04:45:19;;;;;;;0.00;0.00;;;1.10;99.90;;;;;;5032913;28;20041;-68
2021/12/09 04:47:44;;;;;;;0.00;0.00;;;1.20;99.90;;;;;;5032625;28;20025;-68
2021/12/09 04:50:11;;;;;;;0.00;0.00;;;1.20;99.90;;;;;;5032241;28;20500;-68
2021/12/09 04:52:37;;;;;;;0.00;0.00;;;1.10;99.90;;;;;;5032644;28;20033;-68
2021/12/09 04:55:06;;;;;;;0.00;0.00;;;1.10;99.90;;;;;;5031895;28;20126;-68
2021/12/09 04:57:32;;;;;;;0.00;0.00;;;1.10;99.90;;;;;;5032506;28;20049;-68
2021/12/09 04:59:57;;;;;;;0.00;0.00;;;1.10;99.90;;;;;;5032088;28;20463;-68
2021/12/09 05:02:35;;;;;;;0.00;0.00;;;1.10;99.90;;;;;;5032424;28;20032;-68
2021/12/09 05:05:00;;;;;;;0.00;0.00;;;1.10;99.90;;;;;;5032392;28;20034;-68
2021/12/09 05:07:26;;;;;;;0.00;0.00;;;1.20;99.90;;;;;;5032301;28;20432;-68
2021/12/09 05:09:52;;;;;;;0.00;0.00;;;1.10;99.90;;;;;;5032496;28;20037;-68
2021/12/09 05:12:20;;;;;;;0.00;0.00;;;1.10;99.90;;;;;;5031893;28;20029;-68
2021/12/09 05:14:46;;;;;;;0.00;0.00;;;1.10;99.90;;;;;;5032183;28;20390;-68
2021/12/09 05:17:12;;;;;;;0.00;0.00;;;1.10;99.90;;;;;;5041528;28;20059;-68
2021/12/09 05:19:37;;;;;;;0.00;0.00;;;1.10;99.90;;;;;;5050335;28;20040;-69
2021/12/09 05:22:04;;;;;;;0.00;0.00;;;1.10;99.90;;;;;;5031821;28;20034;-68
2021/12/09 05:24:29;;;;;;;0.00;0.00;;;1.10;99.90;;;;;;5031833;28;20068;-68
2021/12/09 05:26:56;;;;;;;0.00;0.00;;;1.10;99.90;;;;;;5032410;28;20063;-68
2021/12/09 05:29:28;;;;;;;0.00;0.00;;;1.10;99.90;;;;;;5031572;28;20037;-68
2021/12/09 05:32:10;;;;;;;0.00;0.00;;;1.10;99.90;;;;;;5031649;28;20041;-68
2021/12/09 05:34:39;;;;;;;0.00;0.00;;;1.10;99.90;;;;;;5031273;28;20029;-68
2021/12/09 05:37:11;;;;;;;0.00;0.00;;;1.20;99.90;;;;;;5031973;28;20042;-68
2021/12/09 05:39:37;;;;;;;0.00;0.00;;;1.20;99.90;;;;;;5031347;28;20025;-68
2021/12/09 05:42:05;;;;;;;0.00;0.00;;;1.20;99.90;;;;;;5031802;28;20453;-68
2021/12/09 05:44:30;;;;;;;0.00;0.00;;;1.20;99.90;;;;;;5044857;28;20536;-68
2021/12/09 05:46:57;;;;;;;0.00;0.00;;;1.20;99.90;;;;;;5045702;28;20124;-68
2021/12/09 05:49:23;;;;;;;0.00;0.00;;;1.20;99.90;;;;;;5046665;28;20060;-68
2021/12/09 05:51:50;;;;;;;0.00;0.00;;;1.20;99.90;;;;;;5031207;28;20473;-68
2021/12/09 05:54:16;;;;;;;0.00;0.00;;;1.20;99.90;;;;;;5031693;28;20116;-68
2021/12/09 05:56:42;;;;;;;0.00;0.00;;;1.10;99.90;;;;;;5031274;28;20440;-68
2021/12/09 05:59:08;;;;;;;0.00;0.00;;;1.10;99.90;;;;;;5028425;28;20083;-68
2021/12/09 06:01:35;;;;;;;0.00;0.00;;;1.10;99.90;;;;;;5030767;28;20057;-67
2021/12/09 06:04:00;;;;;;;0.00;0.00;;;1.20;99.90;;;;;;5031844;28;20033;-67
2021/12/09 06:06:27;;;;;;;0.00;0.00;;;1.20;99.90;;;;;;5046185;28;20037;-67
2021/12/09 06:08:53;;;;;;;0.00;0.00;;;1.20;99.90;;;;;;5051920;28;20475;-68
2021/12/09 06:11:18;;;;;;;0.00;0.00;;;1.20;99.90;;;;;;5050507;28;20033;-67
2021/12/09 06:13:46;;;;;;;0.00;0.00;;;1.20;99.90;;;;;;5040349;28;20164;-67
2021/12/09 06:16:12;;;;;;;0.00;0.00;;;1.20;99.90;;;;;;5030283;28;20595;-68
2021/12/09 06:18:37;;;;;;;0.00;0.00;;;1.10;99.90;;;;;;5029864;28;20037;-68
2021/12/09 06:21:03;;;;;;;0.00;0.00;;;1.20;99.90;;;;;;5024983;28;20040;-68
2021/12/09 06:23:29;;;;;;;0.00;0.00;;;1.20;99.90;;;;;;5030904;28;20435;-68
2021/12/09 06:25:54;;;;;;;0.00;0.00;;;1.10;99.90;;;;;;5035799;28;20026;-67
2021/12/09 06:28:20;;;;;;;0.00;0.00;;;1.10;99.90;;;;;;5034028;28;20033;-67
2021/12/09 06:30:47;;;;;;;0.00;0.00;;;1.10;99.90;;;;;;5033294;28;20033;-67
2021/12/09 06:33:12;;;;;;;0.00;0.00;;;1.10;99.90;;;;;;5035727;28;20025;-67
2021/12/09 06:35:38;;;;;;;0.00;0.00;;;1.10;99.90;;;;;;5035437;28;20432;-67
2021/12/09 06:38:10;;;;;;;0.00;0.00;;;1.10;99.90;;;;;;5034728;28;20040;-67
2021/12/09 06:40:36;;;;;;;0.00;0.00;;;1.10;99.90;;;;;;5034643;28;20030;-67
2021/12/09 06:43:02;;;;;;;0.00;0.00;;;1.10;99.90;;;;;;5034534;28;20030;-68
2021/12/09 06:45:27;;;;;;;0.00;0.00;;;1.10;99.90;;;;;;5034893;28;20060;-67
2021/12/09 06:47:54;;;;;;;0.00;0.00;;;1.10;99.90;;;;;;5042797;28;20404;-68
2021/12/09 06:50:22;;;;;;;0.00;0.00;;;1.10;99.90;;;;;;5034040;28;20029;-67
2021/12/09 06:52:47;;;;;;;0.00;0.00;;;1.00;99.90;;;;;;5034949;28;20469;-67
2021/12/09 06:55:15;;;;;;;0.00;0.00;;;1.00;99.90;;;;;;5034808;28;20030;-67
2021/12/09 06:57:44;;;;;;;0.00;0.00;;;1.00;99.90;;;;;;5034696;28;20083;-67
2021/12/09 07:00:16;;;;;;;0.00;0.00;;;1.00;99.90;;;;;;5033849;28;20034;-67
2021/12/09 07:02:44;;;;;;;0.00;0.00;;;1.00;99.90;;;;;;5034469;28;20045;-67
2021/12/09 07:05:11;;;;;;;0.00;0.00;;;1.00;99.90;;;;;;5034907;28;20055;-67
2021/12/09 07:07:38;;;;;;;0.00;0.00;;;1.00;99.90;;;;;;5033509;28;20041;-67
2021/12/09 07:10:05;;;;;;;0.00;0.00;;;1.00;99.90;;;;;;5031744;28;20037;-68
2021/12/09 07:12:34;;;;;;;0.00;0.00;;;1.00;99.90;;;;;;5032575;28;20061;-67
2021/12/09 07:15:00;;;;;;;0.00;0.00;;;1.00;99.90;;;;;;5032826;28;20037;-67
2021/12/09 07:17:25;;;;;;;0.00;0.00;;;1.00;99.90;;;;;;5043512;28;20766;-67
2021/12/09 07:19:51;;;;;;;0.00;0.00;;;1.00;99.90;;;;;;5035341;28;20021;-67
2021/12/09 07:22:17;;;;;;;0.00;0.00;;;1.00;99.90;;;;;;5027094;28;20025;-67
2021/12/09 07:24:42;;;;;;;0.00;0.00;;;1.00;99.90;;;;;;5031655;28;20079;-67
2021/12/09 07:27:08;;;;;;;0.00;0.00;;;0.90;99.90;;;;;;5033990;28;20120;-67
2021/12/09 07:29:34;;;;;;;0.00;0.00;;;0.90;99.90;;;;;;5033509;28;20055;-67
2021/12/09 07:32:00;;;;;;;0.00;0.00;;;1.00;99.90;;;;;;5033615;28;20029;-67
2021/12/09 07:34:25;;;;;;;0.00;0.00;;;1.00;99.90;;;;;;5034230;28;20117;-68
2021/12/09 07:36:51;;;;;;;0.00;0.00;;;1.00;99.90;;;;;;5034021;28;20108;-68
2021/12/09 07:39:17;;;;;;;0.00;0.00;;;1.00;99.90;;;;;;5033408;28;20067;-68
2021/12/09 07:41:42;;;;;;;0.00;0.00;;;1.00;99.90;;;;;;5043454;28;20029;-68
2021/12/09 07:44:08;;;;;;;0.00;0.00;;;1.00;99.90;;;;;;5053873;28;20633;-68
2021/12/09 07:46:35;;;;;;;0.00;0.00;;;1.00;99.90;;;;;;5051094;28;20061;-68
2021/12/09 07:49:01;;;;;;;0.00;0.00;;;1.10;99.90;;;;;;5033208;28;20415;-67
2021/12/09 07:51:26;;;;;;;0.00;0.00;;;1.10;99.90;;;;;;5033430;28;20113;-67
2021/12/09 07:53:52;;;;;;;0.00;0.00;;;1.10;99.90;;;;;;5033702;28;20487;-67
2021/12/09 07:56:18;;;;;;;0.00;0.00;;;1.10;99.90;;;;;;5033812;28;20025;-67
2021/12/09 07:58:44;;;;;;;0.00;0.00;;;1.10;99.90;;;;;;5033781;28;20030;-68
2021/12/09 08:01:10;;;;;;;0.00;0.00;;;1.10;99.90;;;;;;5033087;28;20029;-67
2021/12/09 08:03:36;;;;;;;0.00;0.00;;;1.10;99.90;;;;;;5033487;28;20034;-68
2021/12/09 08:06:02;;;;;;;0.00;0.00;;;1.10;99.90;;;;;;5033330;28;20034;-68
2021/12/09 08:08:28;;;;;;;0.00;0.00;;;1.10;99.90;;;;;;5032953;28;20029;-68
2021/12/09 08:10:54;;;;;;;0.00;0.00;;;1.20;99.90;;;;;;5032665;28;20045;-68
2021/12/09 08:13:21;;;;;;;0.00;0.00;;;1.20;99.90;;;;;;5033313;28;20033;-68
2021/12/09 08:15:49;;;;;;;0.00;0.00;;;1.30;99.90;;;;;;5033542;28;20036;-68
2021/12/09 08:20:45;;;;;;;0.00;0.00;;;1.20;99.90;;;;;;5032762;28;20030;-68
2021/12/09 08:23:10;;;;;;;0.00;0.00;;;1.30;99.90;;;;;;5033130;28;20036;-68
2021/12/09 08:25:36;;;;;;;0.00;0.00;;;1.30;99.90;;;;;;5033114;28;20123;-68
2021/12/09 08:28:03;;;;;;;0.00;0.00;;;1.20;99.90;;;;;;5033361;28;20033;-67
2021/12/09 08:30:29;;;;;;;0.00;0.00;;;1.30;99.90;;;;;;5032489;28;20052;-68
2021/12/09 08:32:54;;;;;;;0.00;0.00;;;1.30;99.90;;;;;;5032823;28;20435;-68
2021/12/09 08:35:20;;;;;;;0.00;0.00;;;1.30;99.90;;;;;;5032810;28;20026;-68
2021/12/09 08:37:47;;;;;;;0.00;0.00;;;1.40;99.90;;;;;;5032737;28;20036;-68
2021/12/09 08:40:15;;;;;;;0.00;0.00;;;1.40;99.90;;;;;;5032523;28;20427;-68
2021/12/09 08:42:41;;;;;;;0.00;0.00;;;1.40;99.90;;;;;;5032847;28;20547;-68
2021/12/09 08:45:09;;;;;;;0.00;0.00;;;1.40;99.90;;;;;;5032932;28;20029;-68
2021/12/09 08:47:37;;;;;;;0.00;0.00;;;1.40;99.90;;;;;;5038867;28;20392;-68
2021/12/09 08:50:03;;;;;;;0.00;0.00;;;1.40;99.90;;;;;;5031994;28;20037;-68
2021/12/09 08:52:29;;;;;;;0.00;0.00;;;1.40;99.90;;;;;;5032109;28;20045;-68
2021/12/09 08:54:54;;;;;;;0.00;0.00;;;1.40;99.90;;;;;;5032821;28;20070;-68
2021/12/09 08:57:22;;;;;;;0.00;0.00;;;1.40;99.90;;;;;;5031385;28;20055;-68
2021/12/09 08:59:47;;;;;;;0.00;0.00;;;1.50;99.90;;;;;;5031956;28;20034;-68
2021/12/09 09:02:14;;;;;;;0.00;0.00;;;1.60;99.90;;;;;;5030429;28;20014;-69
2021/12/09 09:04:41;;;;;;;0.00;0.00;;;1.60;99.90;;;;;;5029935;28;20075;-69
2021/12/09 09:07:07;;;;;;;0.00;0.00;;;1.70;99.90;;;;;;5030276;28;20043;-68
2021/12/09 09:09:35;;;;;;;0.00;0.00;;;1.60;99.90;;;;;;5031721;28;20025;-69
2021/12/09 09:12:07;;;;;;;0.00;0.00;;;1.60;99.90;;;;;;5031473;28;20036;-68
2021/12/09 09:14:33;;;;;;;0.00;0.00;;;1.60;99.90;;;;;;5031261;28;20057;-68
2021/12/09 09:17:00;;;;;;;0.00;0.00;;;1.60;99.90;;;;;;5029040;28;20033;-68
2021/12/09 09:19:25;;;;;;;0.00;0.00;;;1.70;99.90;;;;;;5030086;28;20030;-68
2021/12/09 09:21:52;;;;;;;0.00;0.00;;;1.70;99.90;;;;;;5030929;28;20091;-68
2021/12/09 09:24:18;;;;;;;0.00;0.00;;;1.70;99.90;;;;;;5031968;28;20459;-68
2021/12/09 09:26:44;;;;;;;0.00;0.00;;;1.70;99.90;;;;;;5032337;28;20026;-68
2021/12/09 09:29:10;;;;;;;0.00;0.00;;;1.70;99.90;;;;;;5032055;28;20052;-68
2021/12/09 09:31:36;;;;;;;0.00;0.00;;;1.70;99.90;;;;;;5038855;28;20447;-68
2021/12/09 09:34:03;;;;;;;0.00;0.00;;;1.70;99.90;;;;;;5049040;28;20025;-68
2021/12/09 09:36:32;;;;;;;0.00;0.00;;;1.70;99.90;;;;;;5049760;28;20434;-68
2021/12/09 09:39:16;;;;;;;0.00;0.00;;;1.70;99.90;;;;;;5036962;28;20060;-68
2021/12/09 09:41:42;;;;;;;;;;;1.70;99.90;;;;;;5031965;28;20026;-68
2021/12/09 09:44:13;;;;;;;0.00;0.00;;;1.70;99.90;;;;;;5032047;28;19909;-69
2021/12/09 09:46:40;;;;;;;0.00;0.00;;;1.70;99.90;;;;;;5040156;28;20389;-68
2021/12/09 09:49:06;;;;;;;0.00;0.00;;;1.70;99.90;;;;;;5050028;28;20094;-69
2021/12/09 09:51:33;;;;;;;0.00;0.00;;;1.80;99.90;;;;;;5031452;28;20108;-69
2021/12/09 09:54:00;;;;;;;0.00;0.00;;;1.80;99.90;;;;;;5031978;28;20029;-68
2021/12/09 09:56:27;;;;;;;0.00;0.00;;;1.90;99.90;;;;;;5031747;28;20062;-69
2021/12/09 09:58:56;;;;;;;0.00;0.00;;;2.00;99.90;;;;;;5031899;28;20056;-69
2021/12/09 10:01:23;;;;;;;0.00;0.00;;;2.00;99.90;;;;;;5032058;28;20060;-69
2021/12/09 10:03:57;;;;;;;0.00;0.00;;;2.10;99.90;;;;;;5041322;28;20033;-69
2021/12/09 10:06:22;;;;;;;0.00;0.00;;;2.00;99.90;;;;;;5043307;28;20532;-69
2021/12/09 10:08:48;;;;;;;0.00;0.00;;;2.10;99.90;;;;;;5035715;28;20130;-69
2021/12/09 10:11:14;;;;;;;0.00;0.00;;;2.20;99.90;;;;;;5034908;28;20037;-69
2021/12/09 10:13:41;;;;;;;0.00;0.00;;;2.30;99.90;;;;;;5036459;28;20148;-68
2021/12/09 10:16:21;;;;;;;0.00;0.00;;;2.20;99.90;;;;;;5039762;28;20045;-69
2021/12/09 10:18:49;;;;;;;0.00;0.00;;;2.30;99.90;;;;;;5035444;28;20041;-69
2021/12/09 10:21:28;;;;;;;0.00;0.00;;;2.30;99.90;;;;;;5034173;28;20036;-69
2021/12/09 10:24:03;;;;;;;0.00;0.00;;;2.30;99.90;;;;;;5034731;28;20021;-69
2021/12/09 10:26:39;;;;;;;0.00;0.00;;;2.30;99.90;;;;;;5040208;28;20026;-68
2021/12/09 10:29:30;;;;;;;0.00;0.00;;;2.30;99.90;;;;;;5035205;28;20041;-68
2021/12/09 10:32:00;;;;;;;0.00;0.00;;;2.20;99.90;;;;;;5034640;28;20041;-68
2021/12/09 10:36:59;;;;;;;0.00;0.00;;;2.20;99.90;;;;;;5055469;28;20472;-68
2021/12/09 10:39:48;;;;;;;0.00;0.00;;;2.20;99.90;;;;;;5041573;28;20033;-68
2021/12/09 10:42:16;;;;;;;0.00;0.00;;;2.20;99.90;;;;;;5034512;28;20029;-68
2021/12/09 10:44:51;;;;;;;0.00;0.00;;;2.40;99.90;;;;;;5035037;28;20024;-68
2021/12/09 10:47:34;;;;;;;0.00;0.00;;;2.40;99.90;;;;;;5042800;28;20053;-69
2021/12/09 10:50:08;;;;;;;0.00;0.00;;;2.50;99.90;;;;;;5035528;28;20527;-68
2021/12/09 10:52:43;;;;;;;0.00;0.00;;;2.50;99.90;;;;;;5022204;28;20091;-68
2021/12/09 10:55:19;;;;;;;0.00;0.00;;;2.60;99.90;;;;;;5034130;28;20025;-68
2021/12/09 10:57:52;;;;;;;0.00;0.00;;;2.60;99.90;;;;;;5034607;28;20128;-68
2021/12/09 11:00:29;;;;;;;0.00;0.00;;;2.60;99.90;;;;;;5034241;28;20043;-69
2021/12/09 11:03:03;;;;;;;0.00;0.00;;;2.70;99.90;;;;;;5034427;28;20021;-69
2021/12/09 11:05:30;;;;;;;0.00;0.00;;;2.70;99.90;;;;;;5021659;28;20041;-68
2021/12/09 11:08:12;;;;;;;0.00;0.00;;;2.70;99.90;;;;;;5033864;28;20056;-68
2021/12/09 11:10:45;;;;;;;0.00;0.00;;;2.80;99.90;;;;;;5034037;28;20032;-69
2021/12/09 11:13:11;;;;;;;0.00;0.00;;;2.90;99.90;;;;;;5038073;28;20034;-69
2021/12/09 11:15:54;;;;;;;0.00;0.00;;;3.10;99.90;;;;;;5034060;28;20044;-69
2021/12/09 11:18:32;;;;;;;0.00;0.00;;;2.90;99.90;;;;;;5048904;28;20033;-69
2021/12/09 11:21:01;;;;;;;0.00;0.00;;;2.80;99.90;;;;;;5033868;28;20534;-69
2021/12/09 11:23:42;;;;;;;0.00;0.00;;;2.90;99.90;;;;;;5033462;28;20083;-69
2021/12/09 11:26:28;;;;;;;0.00;0.00;;;3.10;99.90;;;;;;5037460;28;20073;-69
2021/12/09 11:28:59;;;;;;;0.00;0.00;;;3.10;99.90;;;;;;5054402;28;20033;-68
2021/12/09 11:31:29;;;;;;;0.00;0.00;;;3.00;99.90;;;;;;5043472;28;20030;-69
2021/12/09 11:34:08;;;;;;;0.00;0.00;;;3.00;99.90;;;;;;5034249;28;20030;-69
2021/12/09 11:36:56;;;;;;;0.00;0.00;;;3.00;99.90;;;;;;5034297;28;20038;-69
2021/12/09 11:39:30;;;;;;;0.00;0.00;;;3.20;99.90;;;;;;5033880;28;20476;-69
2021/12/09 11:42:05;;;;;;;0.00;0.00;;;3.30;99.90;;;;;;5031438;28;20483;-69
2021/12/09 11:44:32;;;;;;;0.00;0.00;;;3.30;99.90;;;;;;5028126;28;20037;-69
2021/12/09 11:46:58;;;;;;;0.00;0.00;;;3.30;99.90;;;;;;5038935;28;20473;-69
2021/12/09 11:49:24;;;;;;;0.00;0.00;;;3.30;99.90;;;;;;5053645;28;20029;-69
2021/12/09 11:51:49;;;;;;;0.00;0.00;;;3.40;99.90;;;;;;5038728;28;20099;-69
2021/12/09 11:54:16;;;;;;;0.00;0.00;;;3.40;99.90;;;;;;5033954;28;20519;-69
2021/12/09 12:06:40;;;;;;;0.00;0.00;;;3.50;99.90;;;;;;5045081;28;20033;-69
2021/12/09 12:13:36;;;;;;;0.00;0.00;;;3.20;99.90;;;;;;5031538;28;20550;-69
2021/12/09 12:16:38;;;;;;;0.00;0.00;;;3.30;99.90;;;;;;5044598;28;20099;-69
2021/12/09 12:22:19;;;;;;;0.00;0.00;;;3.30;99.90;;;;;;5031948;28;20040;-69
2021/12/09 12:27:47;;;;;;;0.00;0.00;;;3.20;99.90;;;;;;5033914;28;20055;-69
2021/12/09 12:33:27;;;;;;;0.00;0.00;;;3.20;99.90;;;;;;5030566;28;20044;-69
2021/12/09 12:36:19;;;;;;;0.00;0.00;;;3.20;99.90;;;;;;5032776;28;20044;-69
2021/12/09 12:38:51;;;;;;;0.00;0.00;;;3.10;99.90;;;;;;5032635;28;20045;-68
2021/12/09 12:41:19;;;;;;;0.00;0.00;;;3.10;99.90;;;;;;5030957;28;20040;-69
2021/12/09 12:43:57;;;;;;;0.00;0.00;;;3.20;99.90;;;;;;5031992;28;20564;-69
2021/12/09 12:46:47;;;;;;;0.00;0.00;;;3.40;99.90;;;;;;5025323;28;20035;-69
2021/12/09 12:52:13;;;;;;;0.00;0.00;;;3.50;99.90;;;;;;5031365;28;20037;-68
2021/12/09 12:54:52;;;;;;;0.00;0.00;;;3.50;99.90;;;;;;5031587;28;20065;-68
2021/12/09 12:57:47;;;;;;;0.00;0.00;;;3.40;99.90;;;;;;5029865;28;20053;-69
2021/12/09 13:00:24;;;;;;;0.00;0.00;;;3.40;99.90;;;;;;5034846;28;20055;-69
2021/12/09 13:03:10;;;;;;;0.00;0.00;;;3.50;99.90;;;;;;5041065;28;20137;-69
2021/12/09 13:06:05;;;;;;;0.00;0.00;;;3.50;99.90;;;;;;5036758;28;20079;-69
2021/12/09 13:08:51;;;;;;;0.00;0.00;;;3.50;99.90;;;;;;5029770;28;20037;-69
2021/12/09 13:11:38;;;;;;;0.00;0.00;;;3.50;99.90;;;;;;5032790;28;20542;-69
2021/12/09 13:14:06;;;;;;;0.00;0.00;;;3.30;99.90;;;;;;5030417;28;20029;-69
2021/12/09 13:16:39;;;;;;;0.00;0.00;;;3.20;99.90;;;;;;5033395;28;20037;-69
2021/12/09 13:19:51;;;;;;;0.00;0.00;;;3.20;99.90;;;;;;5047648;28;20626;-69
2021/12/09 13:22:02;;;;;;;0.00;0.00;;;3.30;99.90;;;;;;5020662;28;20056;-69
2021/12/09 13:25:04;;;;;;;0.00;0.00;;;3.30;99.90;;;;;;5039653;28;20060;-69
2021/12/09 13:27:57;;;;;;;0.00;0.00;;;3.30;99.90;;;;;;5040338;28;20098;-69
2021/12/09 13:36:38;;;;;;;0.00;0.00;;;3.20;99.90;;;;;;5033471;28;20038;-68
2021/12/09 13:39:54;;;;;;;0.00;0.00;;;3.20;99.90;;;;;;5032169;28;20041;-68
2021/12/09 13:47:39;;;;;;;0.00;0.00;;;3.20;99.90;;;;;;5042273;28;20048;-69
2021/12/09 13:50:33;;;;;;;0.00;0.00;;;3.20;99.90;;;;;;5030970;28;20033;-69